createdAt,value
2022-08-11T00:01:21.600Z,21.36
2022-08-11T00:03:58.992Z,21.30
2022-08-11T00:06:27.522Z,21.20
2022-08-11T00:08:55.939Z,21.03
2022-08-11T00:11:32.263Z,21.04
2022-08-11T00:13:59.950Z,20.92
2022-08-11T00:16:27.989Z,20.72
2022-08-11T00:18:57.756Z,20.71
2022-08-11T00:22:02.776Z,20.73
2022-08-11T00:24:14.351Z,20.63
2022-08-11T00:26:47.349Z,20.58
2022-08-11T00:29:16.000Z,20.52
2022-08-11T00:31:54.430Z,20.31
2022-08-11T00:34:29.990Z,20.34
2022-08-11T00:37:18.740Z,20.33
2022-08-11T00:39:56.701Z,20.24
2022-08-11T00:42:45.200Z,20.19
2022-08-11T00:45:27.419Z,20.22
2022-08-11T00:48:00.122Z,20.03
2022-08-11T00:51:15.650Z,19.89
2022-08-11T00:53:54.617Z,19.86
2022-08-11T00:56:27.679Z,19.79
2022-08-11T00:59:34.529Z,19.68
2022-08-11T01:02:17.862Z,19.71
2022-08-11T01:05:15.969Z,19.74
2022-08-11T01:08:00.528Z,19.70
2022-08-11T01:11:01.829Z,19.69
2022-08-11T01:14:00.030Z,19.67
2022-08-11T01:16:45.610Z,19.60
2022-08-11T01:20:45.207Z,19.53
2022-08-11T01:23:03.921Z,19.58
2022-08-11T01:25:57.570Z,19.51
2022-08-11T01:29:01.172Z,19.49
2022-08-11T01:31:46.959Z,19.37
2022-08-11T01:34:44.629Z,19.40
2022-08-11T01:37:55.760Z,19.34
2022-08-11T01:41:06.933Z,19.28
2022-08-11T01:44:12.604Z,19.24
2022-08-11T01:46:50.469Z,19.21
2022-08-11T01:50:08.122Z,19.07
2022-08-11T01:52:30.412Z,19.08
2022-08-11T01:55:30.238Z,19.05
2022-08-11T01:58:07.409Z,19.01
2022-08-11T02:00:48.389Z,18.90
2022-08-11T02:03:48.182Z,18.82
2022-08-11T02:06:46.341Z,18.80
2022-08-11T02:09:49.286Z,18.92
2022-08-11T02:12:52.515Z,18.87
2022-08-11T02:15:39.130Z,18.98
2022-08-11T02:18:13.906Z,19.08
2022-08-11T02:21:32.019Z,19.04
2022-08-11T02:24:07.605Z,19.02
2022-08-11T02:26:44.713Z,19.01
2022-08-11T02:29:28.130Z,19.03
2022-08-11T02:32:36.945Z,19.03
2022-08-11T02:35:08.888Z,18.92
2022-08-11T02:38:06.209Z,18.91
2022-08-11T02:41:30.649Z,18.88
2022-08-11T02:44:30.020Z,18.88
2022-08-11T02:47:32.740Z,18.83
2022-08-11T02:50:38.371Z,18.77
2022-08-11T02:53:41.830Z,18.68
2022-08-11T02:56:14.220Z,18.71
2022-08-11T02:59:18.560Z,18.69
2022-08-11T03:01:53.186Z,18.64
2022-08-11T03:04:47.629Z,18.59
2022-08-11T03:07:28.855Z,18.55
2022-08-11T03:10:23.731Z,18.41
2022-08-11T03:13:17.069Z,18.38
2022-08-11T03:16:27.237Z,18.34
2022-08-11T03:19:12.841Z,18.28
2022-08-11T03:22:03.006Z,18.23
2022-08-11T03:24:49.910Z,18.06
2022-08-11T03:27:54.272Z,18.10
2022-08-11T03:30:34.671Z,17.94
2022-08-11T03:33:44.907Z,17.79
2022-08-11T03:36:54.715Z,17.71
2022-08-11T03:39:56.834Z,17.67
2022-08-11T03:43:03.559Z,17.64
2022-08-11T03:45:47.339Z,17.68
2022-08-11T03:48:23.281Z,17.74
2022-08-11T03:51:02.178Z,17.78
2022-08-11T03:53:53.709Z,17.86
2022-08-11T03:57:09.229Z,17.96
2022-08-11T03:59:58.950Z,17.94
2022-08-11T04:02:58.289Z,17.96
2022-08-11T04:05:46.531Z,17.89
2022-08-11T04:08:51.113Z,17.94
2022-08-11T04:11:28.170Z,17.97
2022-08-11T04:14:50.853Z,17.97
2022-08-11T04:17:49.051Z,18.03
2022-08-11T04:20:31.730Z,18.10
2022-08-11T04:23:06.890Z,18.14
2022-08-11T04:26:18.846Z,18.27
2022-08-11T04:29:09.543Z,18.39
2022-08-11T04:32:00.491Z,18.53
2022-08-11T04:34:48.589Z,18.62
2022-08-11T04:37:51.278Z,18.73
2022-08-11T04:40:41.829Z,18.77
2022-08-11T04:43:36.461Z,18.88
2022-08-11T04:48:03.907Z,19.01
2022-08-11T04:51:08.822Z,19.23
2022-08-11T04:54:13.348Z,19.35
2022-08-11T04:57:02.599Z,19.47
2022-08-11T05:00:24.036Z,19.61
2022-08-11T05:03:18.749Z,19.72
2022-08-11T05:05:56.855Z,19.78
2022-08-11T05:09:02.581Z,19.70
2022-08-11T05:12:04.919Z,19.73
2022-08-11T05:14:59.769Z,19.82
2022-08-11T05:18:21.309Z,19.94
2022-08-11T05:21:10.860Z,20.08
2022-08-11T05:24:02.450Z,20.20
2022-08-11T05:26:55.160Z,20.38
2022-08-11T05:29:59.899Z,20.50
2022-08-11T05:33:01.552Z,20.78
2022-08-11T05:36:01.462Z,21.19
2022-08-11T05:38:53.805Z,21.48
2022-08-11T05:41:43.039Z,21.62
2022-08-11T05:44:30.077Z,21.66
2022-08-11T05:47:16.691Z,21.74
2022-08-11T05:50:09.239Z,21.73
2022-08-11T05:53:05.029Z,21.78
2022-08-11T05:56:03.585Z,21.72
2022-08-11T05:58:41.722Z,21.91
2022-08-11T06:01:10.015Z,21.99
2022-08-11T06:03:58.662Z,21.97
2022-08-11T06:06:28.550Z,21.93
2022-08-11T06:08:57.351Z,21.97
2022-08-11T06:11:43.539Z,22.13
2022-08-11T06:14:13.289Z,22.19
2022-08-11T06:16:42.970Z,22.48
2022-08-11T06:19:10.722Z,22.74
2022-08-11T06:21:38.396Z,22.95
2022-08-11T06:24:12.593Z,23.10
2022-08-11T06:27:01.647Z,23.15
2022-08-11T06:29:37.628Z,23.22
2022-08-11T06:32:15.901Z,23.19
2022-08-11T06:35:07.544Z,23.21
2022-08-11T06:38:16.449Z,23.21
2022-08-11T06:41:21.909Z,23.20
2022-08-11T06:44:04.738Z,23.20
2022-08-11T06:46:43.502Z,23.34
2022-08-11T06:49:32.339Z,23.34
2022-08-11T06:52:04.358Z,23.46
2022-08-11T06:54:41.572Z,23.42
2022-08-11T06:57:32.779Z,23.42
2022-08-11T07:00:20.111Z,23.47
2022-08-11T07:03:01.080Z,23.55
2022-08-11T07:05:48.680Z,23.57
2022-08-11T07:09:02.419Z,23.64
2022-08-11T07:12:07.841Z,23.75
2022-08-11T07:15:00.329Z,23.80
2022-08-11T07:17:31.980Z,23.81
2022-08-11T07:20:21.544Z,23.86
2022-08-11T07:23:20.161Z,23.86
2022-08-11T07:26:11.291Z,23.93
2022-08-11T07:28:59.180Z,23.97
2022-08-11T07:31:32.011Z,24.09
2022-08-11T07:34:20.961Z,24.11
2022-08-11T07:36:59.019Z,24.15
2022-08-11T07:39:28.566Z,24.19
2022-08-11T07:41:57.760Z,24.19
2022-08-11T07:44:35.104Z,24.25
2022-08-11T07:47:22.664Z,24.25
2022-08-11T07:50:11.699Z,24.33
2022-08-11T07:52:40.894Z,24.37
2022-08-11T07:55:17.188Z,24.42
2022-08-11T07:58:16.273Z,24.44
2022-08-11T08:01:22.265Z,24.55
2022-08-11T08:04:09.885Z,24.59
2022-08-11T08:06:56.509Z,24.63
2022-08-11T08:09:43.686Z,24.76
2022-08-11T08:12:31.389Z,24.86
2022-08-11T08:15:17.310Z,24.92
2022-08-11T08:18:09.597Z,24.97
2022-08-11T08:20:50.376Z,25.08
2022-08-11T08:23:33.773Z,25.17
2022-08-11T08:26:30.471Z,25.28
2022-08-11T08:29:21.179Z,25.43
2022-08-11T08:31:49.658Z,25.46
2022-08-11T08:34:18.112Z,25.54
2022-08-11T08:36:51.327Z,25.65
2022-08-11T08:39:22.212Z,25.71
2022-08-11T08:41:59.818Z,25.75
2022-08-11T08:44:38.339Z,25.82
2022-08-11T08:47:10.029Z,25.90
2022-08-11T08:49:40.551Z,25.95
2022-08-11T08:52:27.950Z,26.05
2022-08-11T08:55:04.589Z,26.14
2022-08-11T08:57:39.745Z,26.27
2022-08-11T09:00:12.569Z,26.43
2022-08-11T09:02:42.059Z,26.47
2022-08-11T09:05:10.403Z,26.53
2022-08-11T09:07:40.761Z,26.48
2022-08-11T09:10:11.953Z,26.65
2022-08-11T09:12:43.002Z,26.74
2022-08-11T09:15:12.130Z,26.84
2022-08-11T09:17:50.689Z,26.89
2022-08-11T09:20:24.967Z,27.06
2022-08-11T09:26:39.632Z,27.33
2022-08-11T09:29:09.830Z,27.48
2022-08-11T09:31:40.403Z,27.62
2022-08-11T09:34:10.601Z,27.76
2022-08-11T09:36:58.810Z,27.89
2022-08-11T09:39:46.967Z,28.02
2022-08-11T09:42:16.411Z,28.22
2022-08-11T09:44:50.836Z,28.27
2022-08-11T09:47:24.726Z,28.43
2022-08-11T09:50:00.629Z,28.39
2022-08-11T09:52:57.207Z,28.57
2022-08-11T09:55:28.570Z,28.83
2022-08-11T09:58:41.998Z,29.03
2022-08-11T10:01:02.811Z,29.02
2022-08-11T10:03:33.242Z,29.04
2022-08-11T10:06:33.069Z,29.24
2022-08-11T10:09:03.370Z,29.37
2022-08-11T10:11:30.789Z,29.38
2022-08-11T10:14:32.882Z,29.69
2022-08-11T10:17:08.354Z,29.78
2022-08-11T10:19:40.390Z,29.89
2022-08-11T10:22:27.687Z,29.94
2022-08-11T10:25:15.086Z,29.97
2022-08-11T10:28:28.379Z,30.10
2022-08-11T10:31:06.039Z,30.06
2022-08-11T10:33:59.153Z,30.09
2022-08-11T10:36:32.573Z,30.15
2022-08-11T10:39:01.519Z,29.98
2022-08-11T10:42:07.680Z,30.27
2022-08-11T10:44:40.377Z,30.35
2022-08-11T10:47:29.155Z,30.58
2022-08-11T10:50:16.060Z,30.60
2022-08-11T10:53:03.301Z,30.81
2022-08-11T10:55:49.671Z,30.88
2022-08-11T10:58:36.660Z,30.93
2022-08-11T11:13:37.369Z,31.11
2022-08-11T11:16:39.988Z,31.15
2022-08-11T11:19:09.924Z,31.20
2022-08-11T11:21:39.129Z,31.36
2022-08-11T11:24:21.840Z,31.46
2022-08-11T11:27:00.929Z,31.58
2022-08-11T11:29:30.809Z,31.62
2022-08-11T11:32:21.379Z,31.79
2022-08-11T11:35:13.320Z,32.16
2022-08-11T11:37:41.889Z,32.57
2022-08-11T11:40:31.667Z,32.99
2022-08-11T11:43:00.589Z,33.17
2022-08-11T11:45:27.966Z,33.33
2022-08-11T11:47:58.549Z,33.26
2022-08-11T11:50:25.569Z,33.11
2022-08-11T11:53:01.089Z,32.96
2022-08-11T11:55:29.739Z,32.97
2022-08-11T11:58:18.626Z,33.14
2022-08-11T12:01:05.999Z,33.37
2022-08-11T12:03:35.612Z,33.54
2022-08-11T12:06:03.478Z,33.74
2022-08-11T12:08:31.828Z,33.86
2022-08-11T12:11:20.790Z,33.97
2022-08-11T12:13:50.592Z,33.73
2022-08-11T12:16:33.465Z,33.86
2022-08-11T12:19:12.040Z,34.03
2022-08-11T12:22:03.660Z,34.22
2022-08-11T12:24:51.148Z,34.22
2022-08-11T12:27:25.065Z,34.07
2022-08-11T12:30:11.570Z,33.89
2022-08-11T12:32:40.798Z,33.93
2022-08-11T12:35:09.125Z,33.80
2022-08-11T12:37:40.447Z,33.70
2022-08-11T12:40:43.608Z,33.65
2022-08-11T12:43:41.796Z,33.84
2022-08-11T12:46:28.058Z,34.00
2022-08-11T12:49:28.701Z,34.03
2022-08-11T12:52:12.201Z,34.10
2022-08-11T12:54:54.581Z,34.25
2022-08-11T12:57:54.319Z,34.39
2022-08-11T13:00:41.343Z,34.66
2022-08-11T13:03:29.403Z,34.93
2022-08-11T13:06:00.004Z,35.08
2022-08-11T13:08:29.802Z,35.11
2022-08-11T13:11:17.602Z,34.95
2022-08-11T13:13:54.066Z,35.21
2022-08-11T13:16:32.633Z,35.30
2022-08-11T13:19:01.840Z,35.11
2022-08-11T13:21:30.305Z,34.99
2022-08-11T13:24:03.405Z,34.80
2022-08-11T13:26:48.166Z,34.53
2022-08-11T13:29:28.880Z,34.30
2022-08-11T13:31:59.944Z,33.85
2022-08-11T13:34:29.041Z,33.46
2022-08-11T13:37:01.653Z,33.34
2022-08-11T13:39:31.237Z,33.09
2022-08-11T13:42:01.341Z,33.01
2022-08-11T13:44:31.271Z,33.00
2022-08-11T13:47:04.576Z,32.89
2022-08-11T13:49:35.305Z,32.64
2022-08-11T13:52:03.988Z,32.51
2022-08-11T13:54:34.641Z,32.40
2022-08-11T13:57:08.215Z,32.34
2022-08-11T13:59:49.975Z,32.37
2022-08-11T14:02:29.145Z,32.40
2022-08-11T14:05:02.280Z,32.79
2022-08-11T14:07:37.784Z,33.02
2022-08-11T14:10:07.461Z,33.20
2022-08-11T14:12:55.922Z,33.28
2022-08-11T14:15:28.841Z,33.50
2022-08-11T14:18:05.452Z,33.83
2022-08-11T14:20:53.460Z,33.78
2022-08-11T14:23:31.290Z,33.80
2022-08-11T14:26:18.741Z,33.50
2022-08-11T14:28:46.593Z,33.19
2022-08-11T14:31:17.602Z,32.82
2022-08-11T14:33:59.282Z,32.49
2022-08-11T14:36:31.884Z,32.12
2022-08-11T14:39:01.400Z,31.85
2022-08-11T14:42:07.456Z,31.56
2022-08-11T14:44:55.101Z,31.36
2022-08-11T14:47:25.432Z,31.35
2022-08-11T14:50:10.388Z,31.23
2022-08-11T14:52:45.905Z,31.03
2022-08-11T14:55:32.786Z,30.93
2022-08-11T14:58:02.034Z,30.75
2022-08-11T15:00:30.441Z,30.59
2022-08-11T15:03:11.705Z,30.43
2022-08-11T15:05:57.634Z,30.17
2022-08-11T15:08:47.185Z,30.13
2022-08-11T15:11:34.913Z,29.98
2022-08-11T15:14:03.034Z,29.81
2022-08-11T15:16:49.543Z,29.65
2022-08-11T15:19:19.770Z,29.49
2022-08-11T15:22:14.282Z,29.38
2022-08-11T15:24:41.493Z,29.23
2022-08-11T15:27:34.999Z,29.16
2022-08-11T15:30:33.253Z,29.12
2022-08-11T15:33:27.791Z,28.96
2022-08-11T15:36:15.650Z,28.96
2022-08-11T15:38:55.890Z,28.84
2022-08-11T15:42:10.000Z,28.74
2022-08-11T15:45:03.051Z,28.55
2022-08-11T15:47:37.933Z,28.44
2022-08-11T15:50:11.392Z,28.36
2022-08-11T15:52:47.961Z,28.26
2022-08-11T15:55:16.409Z,28.24
2022-08-11T15:58:06.726Z,28.13
2022-08-11T16:00:59.114Z,28.08
2022-08-11T16:04:07.710Z,28.03
2022-08-11T16:07:11.797Z,28.01
2022-08-11T16:09:51.663Z,27.95
2022-08-11T16:12:23.363Z,27.90
2022-08-11T16:15:12.068Z,27.92
2022-08-11T16:17:44.581Z,27.85
2022-08-11T16:20:17.809Z,27.78
2022-08-11T16:22:57.109Z,27.75
2022-08-11T16:27:02.605Z,27.75
2022-08-11T16:28:22.159Z,27.68
2022-08-11T16:30:50.219Z,27.65
2022-08-11T16:33:48.547Z,27.60
2022-08-11T16:36:25.550Z,27.56
2022-08-11T16:38:55.194Z,27.60
2022-08-11T16:41:49.349Z,27.54
2022-08-11T16:44:38.385Z,27.47
2022-08-11T16:47:12.379Z,27.38
2022-08-11T16:49:44.263Z,27.31
2022-08-11T16:52:21.409Z,27.27
2022-08-11T16:54:49.230Z,27.25
2022-08-11T16:57:39.489Z,27.21
2022-08-11T17:00:09.989Z,27.18
2022-08-11T17:03:01.930Z,27.13
2022-08-11T17:05:55.238Z,27.08
2022-08-11T17:08:56.642Z,27.04
2022-08-11T17:11:48.282Z,27.02
2022-08-11T17:14:35.489Z,26.92
2022-08-11T17:17:13.149Z,26.88
2022-08-11T17:20:41.740Z,26.83
2022-08-11T17:22:55.749Z,26.75
2022-08-11T17:25:26.089Z,26.77
2022-08-11T17:27:56.886Z,26.74
2022-08-11T17:30:45.749Z,26.65
2022-08-11T17:33:32.469Z,26.59
2022-08-11T17:36:01.417Z,26.48
2022-08-11T17:38:29.799Z,26.49
2022-08-11T17:41:23.375Z,26.42
2022-08-11T17:44:12.326Z,26.32
2022-08-11T17:47:03.589Z,26.34
2022-08-11T17:49:37.695Z,26.24
2022-08-11T17:52:25.427Z,26.23
2022-08-11T17:55:13.383Z,26.17
2022-08-11T17:58:01.308Z,26.12
2022-08-11T18:00:28.463Z,26.08
2022-08-11T18:03:17.697Z,26.05
2022-08-11T18:05:46.965Z,26.01
2022-08-11T18:08:35.066Z,26.00
2022-08-11T18:12:06.492Z,25.98
2022-08-11T18:14:30.939Z,25.95
2022-08-11T18:17:16.429Z,25.92
2022-08-11T18:20:02.219Z,25.89
2022-08-11T18:22:53.845Z,25.87
2022-08-11T18:25:45.600Z,25.80
2022-08-11T18:28:34.158Z,25.78
2022-08-11T18:31:22.827Z,25.74
2022-08-11T18:34:14.959Z,25.71
2022-08-11T18:37:06.769Z,25.65
2022-08-11T18:39:56.739Z,25.59
2022-08-11T18:42:46.303Z,25.56
2022-08-11T18:45:39.972Z,25.51
2022-08-11T18:48:37.324Z,25.46
2022-08-11T18:51:30.559Z,25.40
2022-08-11T18:54:23.399Z,25.36
2022-08-11T18:57:10.469Z,25.30
2022-08-11T18:59:59.270Z,25.23
2022-08-11T19:02:48.673Z,25.23
2022-08-11T19:06:35.246Z,25.19
2022-08-11T19:08:49.162Z,25.12
2022-08-11T19:11:42.785Z,25.05
2022-08-11T19:14:31.480Z,24.98
2022-08-11T19:17:44.052Z,24.95
2022-08-11T19:20:31.601Z,24.86
2022-08-11T19:23:18.927Z,24.89
2022-08-11T19:26:06.300Z,24.87
2022-08-11T19:28:54.024Z,24.83
2022-08-11T19:31:44.455Z,24.82
2022-08-11T19:34:35.382Z,24.77
2022-08-11T19:37:25.008Z,24.79
2022-08-11T19:40:16.658Z,24.75
2022-08-11T19:43:03.822Z,24.74
2022-08-11T19:46:01.982Z,24.68
2022-08-11T19:48:48.982Z,24.64
2022-08-11T19:51:36.145Z,24.56
2022-08-11T19:54:22.667Z,24.46
2022-08-11T19:57:09.301Z,24.46
2022-08-11T19:59:56.251Z,24.42
2022-08-11T20:02:41.859Z,24.38
2022-08-11T20:05:27.808Z,24.35
2022-08-11T20:08:16.259Z,24.26
2022-08-11T20:11:06.849Z,24.27
2022-08-11T20:13:54.620Z,24.21
2022-08-11T20:16:43.094Z,24.08
2022-08-11T20:19:56.467Z,23.99
2022-08-11T20:22:36.530Z,23.95
2022-08-11T20:25:24.121Z,23.94
2022-08-11T20:28:12.092Z,23.91
2022-08-11T20:30:58.463Z,23.84
2022-08-11T20:33:44.039Z,23.87
2022-08-11T20:36:31.829Z,23.87
2022-08-11T20:39:18.962Z,23.83
2022-08-11T20:42:07.042Z,23.84
2022-08-11T20:44:55.466Z,23.85
2022-08-11T20:47:59.317Z,23.82
2022-08-11T20:50:47.971Z,23.83
2022-08-11T20:53:40.493Z,23.85
2022-08-11T20:56:28.490Z,23.82
2022-08-11T20:59:21.787Z,23.83
2022-08-11T21:05:19.330Z,23.83
2022-08-11T21:08:09.602Z,23.84
2022-08-11T21:10:59.621Z,23.86
2022-08-11T21:13:51.403Z,23.84
2022-08-11T21:16:47.432Z,23.90
2022-08-11T21:20:00.361Z,23.90
2022-08-11T21:22:59.314Z,23.96
2022-08-11T21:25:59.185Z,23.97
2022-08-11T21:28:47.333Z,23.99
2022-08-11T21:31:34.212Z,23.98
2022-08-11T21:34:21.820Z,23.99
2022-08-11T21:37:08.880Z,23.99
2022-08-11T21:39:55.077Z,23.96
2022-08-11T21:42:42.841Z,23.98
2022-08-11T21:45:29.641Z,23.90
2022-08-11T21:48:15.981Z,23.86
2022-08-11T21:51:01.622Z,23.85
2022-08-11T21:53:48.120Z,23.81
2022-08-11T21:56:35.130Z,23.67
2022-08-11T21:59:20.763Z,23.73
2022-08-11T22:02:12.339Z,23.59
2022-08-11T22:04:58.970Z,23.54
2022-08-11T22:07:45.073Z,23.51
2022-08-11T22:10:40.566Z,23.48
2022-08-11T22:13:27.440Z,23.45
2022-08-11T22:16:13.322Z,23.45
2022-08-11T22:18:59.300Z,23.43
2022-08-11T22:21:56.888Z,23.39
2022-08-11T22:24:51.043Z,23.38
2022-08-11T22:27:36.833Z,23.34
2022-08-11T22:30:25.291Z,23.30
2022-08-11T22:33:12.161Z,23.24
2022-08-11T22:36:01.961Z,23.20
2022-08-11T22:38:47.910Z,23.16
2022-08-11T22:41:33.563Z,23.08
2022-08-11T22:44:19.321Z,23.05
2022-08-11T22:47:05.451Z,23.02
2022-08-11T22:49:57.580Z,22.97
2022-08-11T22:52:46.831Z,22.95
2022-08-11T22:55:34.151Z,22.95
2022-08-11T22:58:21.731Z,22.89
2022-08-11T23:01:07.903Z,22.84
2022-08-11T23:03:54.370Z,22.76
2022-08-11T23:06:40.523Z,22.74
2022-08-11T23:09:27.782Z,22.72
2022-08-11T23:12:13.726Z,22.73
2022-08-11T23:14:59.921Z,22.76
2022-08-11T23:17:46.842Z,22.82
2022-08-11T23:20:37.240Z,22.82
2022-08-11T23:23:31.637Z,22.81
2022-08-11T23:26:18.881Z,22.79
2022-08-11T23:29:05.130Z,22.81
2022-08-11T23:31:53.882Z,22.82
2022-08-11T23:35:04.737Z,22.82
2022-08-11T23:37:54.282Z,22.78
2022-08-11T23:40:40.041Z,22.79
2022-08-11T23:43:26.908Z,22.80
2022-08-11T23:46:12.091Z,22.78
2022-08-11T23:48:58.198Z,22.75
2022-08-11T23:51:46.206Z,22.77
2022-08-11T23:54:37.375Z,22.76
2022-08-11T23:57:23.940Z,22.79
